Time;durP1;ratioP1;P1;durP2;ratioP2;P2;SDS_P1;SDS_P2;PMS_P1;PMS_P2;Temp;Humidity;BMP_temperature;BMP_pressure;BME280_temperature;BME280_humidity;BME280_pressure;Samples;Min_cycle;Max_cycle;Signal;HPM_P1;HPM_P2
2021/11/10 00:02:04;;;;;;;1.30;1.20;;;19.40;69.00;;;;;;6215353;23;20012;-69
2021/11/10 00:04:30;;;;;;;1.52;1.05;;;19.40;69.00;;;;;;6189154;23;20011;-69
2021/11/10 00:06:56;;;;;;;0.82;0.82;;;19.40;69.00;;;;;;6215361;23;20000;-69
2021/11/10 00:09:21;;;;;;;3.10;0.90;;;19.40;69.00;;;;;;6215367;23;20092;-69
2021/11/10 00:11:47;;;;;;;0.77;0.77;;;19.40;69.00;;;;;;6188568;23;20015;-69
2021/11/10 00:14:12;;;;;;;2.50;1.20;;;19.40;69.00;;;;;;6215357;23;20343;-69
2021/11/10 00:16:38;;;;;;;1.23;1.13;;;19.40;69.10;;;;;;6188837;23;20336;-70
2021/11/10 00:19:04;;;;;;;0.85;0.85;;;19.40;69.00;;;;;;6215188;23;19997;-70
2021/11/10 00:21:30;;;;;;;1.40;1.00;;;19.50;69.10;;;;;;6188879;23;20387;-70
2021/11/10 00:23:55;;;;;;;1.95;1.10;;;19.50;69.10;;;;;;6163796;23;20016;-70
2021/11/10 00:26:22;;;;;;;1.10;1.00;;;19.50;69.10;;;;;;6214501;23;20039;-70
2021/11/10 00:28:48;;;;;;;1.40;1.02;;;19.50;69.10;;;;;;6164090;23;20058;-70
2021/11/10 00:31:14;;;;;;;1.35;1.20;;;19.50;69.10;;;;;;6214719;23;20008;-70
2021/11/10 00:33:39;;;;;;;1.20;0.90;;;19.50;69.10;;;;;;6188684;23;20301;-70
2021/11/10 00:36:07;;;;;;;1.52;1.10;;;19.50;69.20;;;;;;6215095;23;20003;-70
2021/11/10 00:38:33;;;;;;;1.67;1.13;;;19.50;69.20;;;;;;6189454;23;20031;-69
2021/11/10 00:40:58;;;;;;;1.10;1.00;;;19.50;69.20;;;;;;6163233;23;20004;-69
2021/11/10 00:43:24;;;;;;;0.95;0.90;;;19.50;70.20;;;;;;6214883;23;20008;-69
2021/11/10 00:45:50;;;;;;;1.45;1.10;;;19.50;69.20;;;;;;6188811;23;20008;-70
2021/11/10 00:48:16;;;;;;;1.00;1.00;;;19.50;69.20;;;;;;6188639;23;20000;-69
2021/11/10 00:50:42;;;;;;;1.73;1.10;;;19.50;69.20;;;;;;6188576;23;20011;-69
2021/11/10 00:53:07;;;;;;;0.90;0.90;;;19.50;69.20;;;;;;6188378;23;19997;-69
2021/11/10 00:55:34;;;;;;;1.42;1.00;;;19.50;69.20;;;;;;6214515;23;19993;-69
2021/11/10 00:58:00;;;;;;;2.10;1.02;;;19.50;69.30;;;;;;6188785;23;20001;-69
2021/11/10 01:00:25;;;;;;;1.10;0.90;;;19.50;69.20;;;;;;6188460;23;20067;-69
2021/11/10 01:02:51;;;;;;;1.30;1.00;;;19.50;69.30;;;;;;6214917;23;20331;-69
2021/11/10 01:05:17;;;;;;;1.20;1.10;;;19.50;69.30;;;;;;6214878;23;19997;-70
2021/11/10 01:07:43;;;;;;;5.47;0.90;;;19.50;69.30;;;;;;6188534;23;20000;-70
2021/11/10 01:10:09;;;;;;;1.80;1.13;;;19.50;69.30;;;;;;6188105;23;19997;-70
2021/11/10 01:12:35;;;;;;;1.65;1.05;;;19.50;69.30;;;;;;6188409;23;20000;-70
2021/11/10 01:15:01;;;;;;;1.65;1.20;;;19.50;69.30;;;;;;6214871;23;20020;-70
2021/11/10 01:17:27;;;;;;;0.75;0.75;;;19.50;69.30;;;;;;6188458;23;20004;-70
2021/11/10 01:19:52;;;;;;;1.05;1.00;;;19.50;69.30;;;;;;6215246;23;20420;-70
2021/11/10 01:22:18;;;;;;;1.10;0.98;;;19.50;69.30;;;;;;6214647;23;20008;-70
2021/11/10 01:24:44;;;;;;;1.27;1.08;;;19.50;69.30;;;;;;6187484;23;20403;-69
2021/11/10 01:27:10;;;;;;;3.63;0.98;;;19.50;69.30;;;;;;6188191;23;20062;-69
2021/11/10 01:29:36;;;;;;;1.00;0.90;;;19.50;69.30;;;;;;6163580;23;20001;-70
2021/11/10 01:32:02;;;;;;;1.30;0.95;;;19.50;69.30;;;;;;6163412;23;20004;-70
2021/11/10 01:34:27;;;;;;;1.08;0.90;;;19.50;69.40;;;;;;6188067;23;20080;-69
2021/11/10 01:36:53;;;;;;;1.65;0.88;;;19.50;69.30;;;;;;6214703;23;20456;-69
2021/11/10 01:39:19;;;;;;;1.55;1.20;;;19.50;69.40;;;;;;6187702;23;20004;-70
2021/11/10 01:41:50;;;;;;;1.75;1.10;;;19.50;69.40;;;;;;6187705;23;20004;-69
2021/11/10 01:44:15;;;;;;;0.95;0.93;;;19.50;69.50;;;;;;6214528;23;20001;-69
2021/11/10 01:46:41;;;;;;;1.95;0.88;;;19.50;69.40;;;;;;6214728;23;20001;-69
2021/11/10 01:49:07;;;;;;;1.08;0.95;;;19.50;69.50;;;;;;6188193;23;20455;-69
2021/11/10 01:51:33;;;;;;;2.55;1.10;;;19.50;69.50;;;;;;6214425;23;20008;-69
2021/11/10 01:53:58;;;;;;;1.00;0.90;;;19.50;69.50;;;;;;6214355;23;19997;-69
2021/11/10 01:56:24;;;;;;;0.98;0.93;;;19.50;69.50;;;;;;6214272;23;20523;-69
2021/11/10 01:58:50;;;;;;;0.80;0.80;;;19.50;69.50;;;;;;6188209;23;20001;-69
2021/11/10 02:01:16;;;;;;;2.55;1.00;;;19.50;69.50;;;;;;6214482;23;20039;-69
2021/11/10 02:03:41;;;;;;;1.20;0.93;;;19.50;69.50;;;;;;6187996;23;20359;-69
2021/11/10 02:06:07;;;;;;;0.82;0.82;;;19.50;69.50;;;;;;6188154;23;20001;-69
2021/11/10 02:08:32;;;;;;;2.90;1.00;;;19.50;69.50;;;;;;6214030;23;20028;-69
2021/11/10 02:10:58;;;;;;;1.08;0.90;;;19.50;69.50;;;;;;6187927;23;20016;-69
2021/11/10 02:13:24;;;;;;;2.47;1.00;;;19.50;69.50;;;;;;6187971;23;20459;-70
2021/11/10 02:15:50;;;;;;;1.25;0.93;;;19.50;69.50;;;;;;6163552;23;19996;-70
2021/11/10 02:18:15;;;;;;;1.27;0.90;;;19.50;69.50;;;;;;6214310;23;20001;-70
2021/11/10 02:20:41;;;;;;;1.02;0.90;;;19.50;69.50;;;;;;6214499;23;20008;-70
2021/11/10 02:23:07;;;;;;;1.00;0.90;;;19.50;69.50;;;;;;6187669;23;20001;-69
2021/11/10 02:25:33;;;;;;;1.00;0.90;;;19.50;69.60;;;;;;6163112;23;20355;-69
2021/11/10 02:27:59;;;;;;;1.02;0.90;;;19.50;69.60;;;;;;6188174;23;20024;-69
2021/11/10 02:30:25;;;;;;;1.05;0.88;;;19.50;69.60;;;;;;6187752;23;20000;-69
2021/11/10 02:32:53;;;;;;;1.13;1.02;;;19.50;69.60;;;;;;6187978;23;20004;-69
2021/11/10 02:35:21;;;;;;;0.88;0.80;;;19.50;69.60;;;;;;6188062;23;20001;-69
2021/11/10 02:38:05;;;;;;;1.27;1.17;;;19.50;69.70;;;;;;6187753;23;20008;-69
2021/11/10 02:40:31;;;;;;;0.98;0.88;;;19.50;69.60;;;;;;6187826;23;20023;-69
2021/11/10 02:42:57;;;;;;;1.08;0.98;;;19.50;69.60;;;;;;6187886;23;20001;-69
2021/11/10 02:45:23;;;;;;;0.80;0.80;;;19.50;69.70;;;;;;6214224;23;19997;-69
2021/11/10 02:47:49;;;;;;;1.63;0.90;;;19.50;69.70;;;;;;6188121;23;19997;-69
2021/11/10 02:50:14;;;;;;;0.70;0.70;;;19.50;69.70;;;;;;6163098;23;20008;-69
2021/11/10 02:52:40;;;;;;;1.13;0.90;;;19.50;69.70;;;;;;6214140;23;20004;-69
2021/11/10 02:55:06;;;;;;;1.10;0.90;;;19.50;69.60;;;;;;6164832;23;20340;-69
2021/11/10 02:57:32;;;;;;;1.27;0.90;;;19.50;69.70;;;;;;6164764;23;19997;-69
2021/11/10 02:59:57;;;;;;;1.67;0.98;;;19.50;69.70;;;;;;6216227;23;20051;-70
2021/11/10 03:02:25;;;;;;;1.45;0.95;;;19.50;69.70;;;;;;6215870;23;20054;-70
2021/11/10 03:04:50;;;;;;;1.00;0.90;;;19.50;69.70;;;;;;6189619;23;20433;-69
2021/11/10 03:07:16;;;;;;;1.52;1.17;;;19.50;69.70;;;;;;6215612;23;20061;-69
2021/11/10 03:09:42;;;;;;;1.63;0.90;;;19.50;69.70;;;;;;6189448;23;20039;-70
2021/11/10 03:12:08;;;;;;;2.00;1.00;;;19.50;69.70;;;;;;6164767;23;20439;-70
2021/11/10 03:14:35;;;;;;;2.17;0.90;;;19.50;69.80;;;;;;6189619;23;20003;-69
2021/11/10 03:17:03;;;;;;;1.33;0.90;;;19.50;69.80;;;;;;6189623;23;20227;-70
2021/11/10 03:19:28;;;;;;;1.23;1.10;;;19.50;69.80;;;;;;6189491;23;20001;-69
2021/11/10 03:21:54;;;;;;;1.20;0.90;;;19.50;69.80;;;;;;6215637;23;20122;-69
2021/11/10 03:24:20;;;;;;;1.15;0.68;;;19.50;69.90;;;;;;6215381;23;20473;-69
2021/11/10 03:26:45;;;;;;;1.10;0.82;;;19.50;69.90;;;;;;6189414;23;20004;-70
2021/11/10 03:29:11;;;;;;;0.80;0.80;;;19.50;69.90;;;;;;6215833;23;20012;-70
2021/11/10 03:31:37;;;;;;;0.70;0.70;;;19.50;69.90;;;;;;6189146;23;20008;-70
2021/11/10 03:34:03;;;;;;;1.13;0.80;;;19.50;69.90;;;;;;6164534;23;20439;-70
2021/11/10 03:36:29;;;;;;;1.20;1.02;;;19.50;69.90;;;;;;6215349;23;20000;-70
2021/11/10 03:38:55;;;;;;;1.30;0.95;;;19.50;69.90;;;;;;6215681;23;20332;-70
2021/11/10 03:41:21;;;;;;;0.95;0.82;;;19.50;69.90;;;;;;6215631;23;20005;-70
2021/11/10 03:43:46;;;;;;;1.70;0.80;;;19.50;69.90;;;;;;6164610;23;20008;-70
2021/11/10 03:46:12;;;;;;;1.13;0.82;;;19.50;69.90;;;;;;6164474;23;20008;-70
2021/11/10 03:48:38;;;;;;;1.00;0.95;;;19.50;69.90;;;;;;6189204;23;20012;-70
2021/11/10 03:51:04;;;;;;;0.95;0.75;;;19.50;70.00;;;;;;6215151;23;20088;-70
2021/11/10 03:53:29;;;;;;;3.70;1.00;;;19.50;69.90;;;;;;6188979;23;20001;-70
2021/11/10 03:55:55;;;;;;;2.90;0.90;;;19.50;69.90;;;;;;6215709;23;20001;-70
2021/11/10 03:58:21;;;;;;;1.00;0.82;;;19.50;69.90;;;;;;6215400;23;20340;-69
2021/11/10 04:00:46;;;;;;;0.70;0.70;;;19.50;70.00;;;;;;6189184;23;20001;-69
2021/11/10 04:03:12;;;;;;;0.95;0.82;;;19.50;70.00;;;;;;6215647;23;20005;-69
2021/11/10 04:05:38;;;;;;;0.65;0.65;;;19.50;70.00;;;;;;6214404;23;20047;-70
2021/11/10 04:08:04;;;;;;;1.00;0.90;;;19.50;70.00;;;;;;6189154;23;20087;-69
2021/11/10 04:10:30;;;;;;;1.33;0.90;;;19.50;70.00;;;;;;6188827;23;20035;-70
2021/11/10 04:12:55;;;;;;;1.05;0.95;;;19.50;70.00;;;;;;6215333;23;20051;-69
2021/11/10 04:15:21;;;;;;;0.98;0.70;;;19.50;70.00;;;;;;6215334;23;20035;-69
2021/11/10 04:17:46;;;;;;;1.17;0.95;;;19.50;70.00;;;;;;6188819;23;20050;-69
2021/11/10 04:20:12;;;;;;;1.45;0.80;;;19.50;70.00;;;;;;6214936;23;20003;-70
2021/11/10 04:22:38;;;;;;;1.52;0.90;;;19.50;70.20;;;;;;6188737;23;20439;-70
2021/11/10 04:25:04;;;;;;;0.80;0.80;;;19.50;70.10;;;;;;6188514;23;20051;-70
2021/11/10 04:27:29;;;;;;;2.50;1.10;;;19.50;70.10;;;;;;6214971;23;20420;-70
2021/11/10 04:29:55;;;;;;;1.77;0.90;;;19.50;70.10;;;;;;6188749;23;20001;-69
2021/11/10 04:32:21;;;;;;;1.20;0.90;;;19.50;70.10;;;;;;6214938;23;20000;-70
2021/11/10 04:34:46;;;;;;;1.23;0.77;;;19.50;71.20;;;;;;6214728;23;19996;-70
2021/11/10 04:37:14;;;;;;;1.33;0.90;;;19.50;70.20;;;;;;6215224;23;20000;-70
2021/11/10 04:39:40;;;;;;;0.75;0.70;;;19.50;70.20;;;;;;6163942;23;20001;-70
2021/11/10 04:42:08;;;;;;;1.15;0.90;;;19.50;70.20;;;;;;6188792;23;20037;-70
2021/11/10 04:44:34;;;;;;;0.88;0.80;;;19.50;70.20;;;;;;6214976;23;20005;-70
2021/11/10 04:47:00;;;;;;;0.70;0.70;;;19.50;70.20;;;;;;6188174;23;20005;-70
2021/11/10 04:49:28;;;;;;;0.98;0.80;;;19.50;70.20;;;;;;6188482;23;20431;-70
2021/11/10 04:51:53;;;;;;;1.10;0.98;;;19.50;70.20;;;;;;6189130;23;20005;-70
2021/11/10 04:54:20;;;;;;;0.93;0.88;;;19.50;70.20;;;;;;6188649;23;20127;-70
2021/11/10 04:56:46;;;;;;;0.88;0.70;;;19.50;70.30;;;;;;6188647;23;20001;-70
2021/11/10 04:59:12;;;;;;;0.70;0.70;;;19.50;70.30;;;;;;6215132;23;20007;-70
2021/11/10 05:01:38;;;;;;;2.03;0.80;;;19.50;70.30;;;;;;6188048;23;20001;-70
2021/11/10 05:04:04;;;;;;;1.17;0.93;;;19.50;70.30;;;;;;6215085;23;20028;-69
2021/11/10 05:06:30;;;;;;;1.13;0.73;;;19.50;70.30;;;;;;6188570;23;20004;-70
2021/11/10 05:08:56;;;;;;;1.38;1.00;;;19.50;70.30;;;;;;6163474;23;20514;-70
2021/11/10 05:11:21;;;;;;;1.08;0.98;;;19.50;70.40;;;;;;6163544;23;20088;-69
2021/11/10 05:13:47;;;;;;;2.38;1.10;;;19.50;70.40;;;;;;6214779;23;20001;-69
2021/11/10 05:16:13;;;;;;;0.90;0.80;;;19.50;70.40;;;;;;6187921;23;20004;-69
2021/11/10 05:18:39;;;;;;;0.82;0.80;;;19.50;70.50;;;;;;6214748;23;20026;-69
2021/11/10 05:21:05;;;;;;;0.95;0.90;;;19.60;70.50;;;;;;6214714;23;20013;-69
2021/11/10 05:23:30;;;;;;;0.77;0.70;;;19.50;70.50;;;;;;6214590;23;20007;-69
2021/11/10 05:25:56;;;;;;;0.77;0.77;;;19.60;70.50;;;;;;6188117;23;20070;-69
2021/11/10 05:28:21;;;;;;;0.73;0.73;;;19.50;70.60;;;;;;6188299;23;20385;-69
2021/11/10 05:30:47;;;;;;;2.35;0.98;;;19.50;70.50;;;;;;6214079;23;20424;-69
2021/11/10 05:33:13;;;;;;;1.02;0.80;;;19.50;70.50;;;;;;6214857;23;20031;-69
2021/11/10 05:35:39;;;;;;;0.80;0.80;;;19.50;70.60;;;;;;6214609;23;19996;-69
2021/11/10 05:38:05;;;;;;;1.98;0.75;;;19.50;70.50;;;;;;6188485;23;20047;-69
2021/11/10 05:40:31;;;;;;;1.67;0.90;;;19.50;70.60;;;;;;6188121;23;20001;-69
2021/11/10 05:42:57;;;;;;;0.88;0.80;;;19.60;70.60;;;;;;6188499;23;20004;-69
2021/11/10 05:45:23;;;;;;;1.08;0.85;;;19.50;70.60;;;;;;6187824;23;20000;-69
2021/11/10 05:47:48;;;;;;;0.73;0.70;;;19.50;70.60;;;;;;6214670;23;20000;-70
2021/11/10 05:50:14;;;;;;;0.80;0.80;;;19.50;70.60;;;;;;6188155;23;20439;-69
2021/11/10 05:52:42;;;;;;;1.73;0.75;;;19.50;70.60;;;;;;6214537;23;20001;-69
2021/11/10 05:55:08;;;;;;;1.00;0.82;;;19.50;70.60;;;;;;6187982;23;20627;-70
2021/11/10 05:57:37;;;;;;;1.17;1.08;;;19.50;70.60;;;;;;6214448;23;19997;-69
2021/11/10 06:00:04;;;;;;;1.48;0.82;;;19.50;70.60;;;;;;6188629;23;19996;-69
2021/11/10 06:02:30;;;;;;;1.42;0.95;;;19.50;70.60;;;;;;6214790;23;20005;-69
2021/11/10 06:04:55;;;;;;;0.70;0.70;;;19.50;70.60;;;;;;6188065;23;20339;-69
2021/11/10 06:07:21;;;;;;;1.00;0.80;;;19.50;70.70;;;;;;6188184;23;20407;-69
2021/11/10 06:09:47;;;;;;;0.93;0.82;;;19.50;70.60;;;;;;6187809;23;20080;-69
2021/11/10 06:12:12;;;;;;;0.88;0.85;;;19.50;70.70;;;;;;6214451;23;20036;-69
2021/11/10 06:14:38;;;;;;;1.00;0.90;;;19.50;71.70;;;;;;6213903;23;20005;-70
2021/11/10 06:17:04;;;;;;;1.25;1.02;;;19.50;70.70;;;;;;6214420;23;20004;-70
2021/11/10 06:19:30;;;;;;;0.80;0.70;;;19.50;70.70;;;;;;6214324;23;20004;-70
2021/11/10 06:21:56;;;;;;;0.70;0.70;;;19.50;70.70;;;;;;6188165;23;20440;-70
2021/11/10 06:24:21;;;;;;;1.15;0.80;;;19.50;70.70;;;;;;6214086;23;20051;-70
2021/11/10 06:26:48;;;;;;;0.85;0.75;;;19.50;70.70;;;;;;6187783;23;20001;-70
2021/11/10 06:29:14;;;;;;;1.10;1.00;;;19.50;70.70;;;;;;6215870;23;20451;-70
2021/11/10 06:31:40;;;;;;;4.03;0.77;;;19.50;70.80;;;;;;6216092;23;20004;-70
2021/11/10 06:34:06;;;;;;;2.08;0.77;;;19.50;70.80;;;;;;6216252;23;20102;-69
2021/11/10 06:36:31;;;;;;;1.10;0.70;;;19.50;70.80;;;;;;6189124;23;20004;-70
2021/11/10 06:38:57;;;;;;;0.77;0.77;;;19.50;70.80;;;;;;6139241;23;20009;-69
2021/11/10 06:41:25;;;;;;;0.77;0.77;;;19.50;70.80;;;;;;6139695;23;20008;-69
2021/11/10 06:43:51;;;;;;;1.52;0.98;;;19.50;70.90;;;;;;6139955;23;20462;-70
2021/11/10 06:46:17;;;;;;;0.75;0.75;;;19.50;70.80;;;;;;6164405;23;20000;-69
2021/11/10 06:48:43;;;;;;;1.27;1.00;;;19.50;70.80;;;;;;6189209;23;20004;-69
2021/11/10 06:51:08;;;;;;;0.80;0.70;;;19.50;70.90;;;;;;6189421;23;20032;-69
2021/11/10 06:53:34;;;;;;;1.20;0.80;;;19.50;70.90;;;;;;6216725;23;20001;-69
2021/11/10 06:56:00;;;;;;;0.75;0.70;;;19.50;70.90;;;;;;6189935;23;20055;-68
2021/11/10 06:58:26;;;;;;;0.85;0.80;;;19.50;70.90;;;;;;6164947;23;20328;-69
2021/11/10 07:00:52;;;;;;;0.82;0.70;;;19.50;70.90;;;;;;6216048;23;20000;-70
2021/11/10 07:03:17;;;;;;;0.77;0.77;;;19.50;70.90;;;;;;6189661;23;20000;-70
2021/11/10 07:05:43;;;;;;;1.15;0.75;;;19.50;70.90;;;;;;6189178;23;20011;-70
2021/11/10 07:08:08;;;;;;;0.70;0.70;;;19.50;70.80;;;;;;6189446;23;20005;-70
2021/11/10 07:10:34;;;;;;;0.80;0.80;;;19.50;70.80;;;;;;6215743;23;20015;-70
2021/11/10 07:13:00;;;;;;;0.60;0.60;;;19.50;70.80;;;;;;6188943;23;20000;-70
2021/11/10 07:15:25;;;;;;;1.42;0.80;;;19.50;70.80;;;;;;6164433;23;20028;-70
2021/11/10 07:17:52;;;;;;;0.60;0.50;;;19.50;70.70;;;;;;6215596;23;19996;-70
2021/11/10 07:20:18;;;;;;;0.70;0.60;;;19.50;70.70;;;;;;6215815;23;20001;-70
2021/11/10 07:22:44;;;;;;;0.88;0.82;;;19.50;70.70;;;;;;6189263;23;20008;-70
2021/11/10 07:25:10;;;;;;;0.60;0.60;;;19.40;70.70;;;;;;6215455;23;20016;-70
2021/11/10 07:27:35;;;;;;;0.70;0.70;;;19.50;70.70;;;;;;6164110;23;20004;-70
2021/11/10 07:30:03;;;;;;;1.35;0.63;;;19.40;70.70;;;;;;6215567;23;20027;-70
2021/11/10 07:32:29;;;;;;;1.35;0.80;;;19.40;70.70;;;;;;6215709;23;20059;-70
2021/11/10 07:34:54;;;;;;;0.70;0.60;;;19.40;70.60;;;;;;6215491;23;20009;-70
2021/11/10 07:37:20;;;;;;;1.90;0.70;;;19.40;70.50;;;;;;6215889;23;20371;-70
2021/11/10 07:39:46;;;;;;;0.70;0.70;;;19.40;70.50;;;;;;6188840;23;20001;-70
2021/11/10 07:42:12;;;;;;;0.77;0.65;;;19.40;70.50;;;;;;6188837;23;20343;-70
2021/11/10 07:44:39;;;;;;;0.90;0.60;;;19.40;70.40;;;;;;6188701;23;20470;-70
2021/11/10 07:47:14;;;;;;;1.55;0.50;;;19.40;70.40;;;;;;6164909;23;20007;-70
2021/11/10 07:49:39;;;;;;;3.55;0.88;;;19.40;70.40;;;;;;6215161;23;20032;-70
2021/11/10 07:52:05;;;;;;;6.60;1.20;;;19.40;70.40;;;;;;6214419;23;20001;-70
2021/11/10 07:54:31;;;;;;;7.63;1.83;;;19.40;70.40;;;;;;6164477;23;20478;-71
2021/11/10 07:56:56;;;;;;;8.25;1.75;;;19.40;70.40;;;;;;6214845;23;20004;-70
2021/11/10 07:59:22;;;;;;;7.15;2.13;;;19.40;70.40;;;;;;6189212;23;20328;-70
2021/11/10 08:01:48;;;;;;;11.80;2.55;;;19.40;70.30;;;;;;6215778;23;20007;-70
2021/11/10 08:04:13;;;;;;;6.32;1.63;;;19.40;70.30;;;;;;6189026;23;20008;-70
2021/11/10 08:06:39;;;;;;;5.32;1.75;;;19.40;70.30;;;;;;6188082;23;20363;-70
2021/11/10 08:09:04;;;;;;;4.30;1.73;;;19.50;70.30;;;;;;6214665;23;20000;-71
2021/11/10 08:11:30;;;;;;;5.22;1.90;;;19.50;70.20;;;;;;6214946;23;20080;-71
2021/11/10 08:13:57;;;;;;;5.88;1.55;;;19.50;70.20;;;;;;6188912;23;20389;-70
2021/11/10 08:16:23;;;;;;;5.95;1.60;;;19.50;70.20;;;;;;6215291;23;20001;-70
2021/11/10 08:18:48;;;;;;;8.63;1.67;;;19.50;70.20;;;;;;6188872;23;20000;-71
2021/11/10 08:21:14;;;;;;;5.97;1.67;;;19.50;70.20;;;;;;6163875;23;20013;-70
2021/11/10 08:23:39;;;;;;;7.97;1.80;;;19.40;70.10;;;;;;6188716;23;20008;-70
2021/11/10 08:26:05;;;;;;;3.80;1.52;;;19.50;70.20;;;;;;6214697;23;20059;-71
2021/11/10 08:28:31;;;;;;;8.18;1.60;;;19.50;70.20;;;;;;6215434;23;20011;-70
2021/11/10 08:30:57;;;;;;;6.55;1.70;;;19.50;70.10;;;;;;6188500;23;20008;-70
2021/11/10 08:33:22;;;;;;;5.70;1.63;;;19.50;70.10;;;;;;6188919;23;20003;-71
2021/11/10 08:35:48;;;;;;;8.77;1.92;;;19.50;70.00;;;;;;6188464;23;20005;-71
2021/11/10 08:38:14;;;;;;;9.10;1.77;;;19.50;70.10;;;;;;6163979;23;20135;-70
2021/11/10 08:40:40;;;;;;;3.60;1.65;;;19.50;70.00;;;;;;6188576;23;20050;-70
2021/11/10 08:43:11;;;;;;;5.53;1.80;;;19.50;70.00;;;;;;6188544;23;20000;-71
2021/11/10 08:45:38;;;;;;;7.75;1.52;;;19.50;70.00;;;;;;6214990;23;20391;-70
2021/11/10 08:48:07;;;;;;;4.07;1.60;;;19.50;70.00;;;;;;6188890;23;20392;-70
2021/11/10 08:50:35;;;;;;;4.80;1.67;;;19.50;70.00;;;;;;6189239;23;20001;-70
2021/11/10 08:53:01;;;;;;;4.00;1.38;;;19.50;70.00;;;;;;6214947;23;20055;-70
2021/11/10 08:55:26;;;;;;;5.97;1.70;;;19.50;69.90;;;;;;6188171;23;20555;-70
2021/11/10 08:57:52;;;;;;;4.10;1.60;;;19.50;69.90;;;;;;6214940;23;20007;-70
2021/11/10 09:00:26;;;;;;;5.35;1.63;;;19.50;69.90;;;;;;6214881;23;20024;-70
2021/11/10 09:02:52;;;;;;;7.78;1.58;;;19.50;69.80;;;;;;6189556;23;20000;-70
2021/11/10 09:05:18;;;;;;;4.53;1.70;;;19.40;69.80;;;;;;6188707;23;20008;-70
2021/11/10 09:07:44;;;;;;;6.40;1.55;;;19.40;69.80;;;;;;6188525;23;20034;-70
2021/11/10 09:10:11;;;;;;;3.45;1.75;;;19.50;69.80;;;;;;6214253;23;20071;-70
2021/11/10 09:12:37;;;;;;;6.53;1.50;;;19.50;69.80;;;;;;6188507;23;20023;-70
2021/11/10 09:15:04;;;;;;;6.25;1.55;;;19.50;69.70;;;;;;6188294;23;20313;-70
2021/11/10 09:17:34;;;;;;;5.65;1.23;;;19.50;69.80;;;;;;6214709;23;20001;-70
2021/11/10 09:20:03;;;;;;;5.80;1.58;;;19.50;69.70;;;;;;6214834;23;20000;-70
2021/11/10 09:22:29;;;;;;;4.53;1.08;;;19.50;69.70;;;;;;6187962;23;20072;-70
2021/11/10 09:24:55;;;;;;;4.82;1.50;;;19.50;69.70;;;;;;6214360;23;20057;-70
2021/11/10 09:27:20;;;;;;;4.80;1.30;;;19.40;69.60;;;;;;6214811;23;20039;-70
2021/11/10 09:29:46;;;;;;;3.63;1.30;;;19.40;69.60;;;;;;6188214;23;20435;-70
2021/11/10 09:32:12;;;;;;;8.20;1.83;;;19.50;69.60;;;;;;6188059;23;20008;-70
2021/11/10 09:34:37;;;;;;;7.15;1.63;;;19.50;70.60;;;;;;6163600;23;20072;-71
2021/11/10 09:37:03;;;;;;;3.47;1.38;;;19.50;69.60;;;;;;6214113;23;19997;-70
2021/11/10 09:39:29;;;;;;;3.95;1.30;;;19.40;69.50;;;;;;6214653;23;20033;-70
2021/11/10 09:41:54;;;;;;;3.17;1.20;;;19.40;70.50;;;;;;6188120;23;20011;-70
2021/11/10 09:44:21;;;;;;;5.13;1.50;;;19.50;69.60;;;;;;6214553;23;20028;-70
2021/11/10 09:46:46;;;;;;;3.35;1.30;;;19.50;69.50;;;;;;6214667;23;20001;-71
2021/11/10 09:49:13;;;;;;;5.25;1.40;;;19.50;69.50;;;;;;6188222;23;20000;-70
2021/11/10 09:51:39;;;;;;;4.60;1.50;;;19.40;69.50;;;;;;6187782;23;20008;-71
2021/11/10 09:54:05;;;;;;;3.30;1.20;;;19.50;69.50;;;;;;6188137;23;20001;-70
2021/11/10 09:56:32;;;;;;;5.30;1.20;;;19.40;69.40;;;;;;6163434;23;20007;-70
2021/11/10 09:58:58;;;;;;;5.10;1.23;;;19.40;69.40;;;;;;6138803;23;20432;-70
2021/11/10 10:01:24;;;;;;;3.80;1.00;;;19.40;69.40;;;;;;6188227;23;20051;-70
2021/11/10 10:03:54;;;;;;;4.13;1.20;;;19.50;69.40;;;;;;6189605;23;20440;-70
2021/11/10 10:06:20;;;;;;;2.35;1.33;;;19.50;69.40;;;;;;6189634;23;20309;-70
2021/11/10 10:08:49;;;;;;;2.33;0.95;;;19.40;69.30;;;;;;6190280;23;20012;-70
2021/11/10 10:11:16;;;;;;;2.70;1.08;;;19.40;69.30;;;;;;6165128;23;20000;-71
2021/11/10 10:13:42;;;;;;;2.75;0.90;;;19.40;69.30;;;;;;6190134;23;20001;-70
2021/11/10 10:16:08;;;;;;;3.10;0.93;;;19.40;69.30;;;;;;6190009;23;19997;-70
2021/11/10 10:18:35;;;;;;;2.03;1.20;;;19.40;69.30;;;;;;6190234;23;20003;-71
2021/11/10 10:21:02;;;;;;;4.43;1.52;;;19.40;69.30;;;;;;6189656;23;20039;-70
2021/11/10 10:23:32;;;;;;;5.00;1.30;;;19.50;69.30;;;;;;6189965;23;20087;-70
2021/11/10 10:26:02;;;;;;;1.67;0.93;;;19.40;69.20;;;;;;6190600;23;20013;-70
2021/11/10 10:28:29;;;;;;;2.10;1.20;;;19.40;69.20;;;;;;6216482;23;20055;-70
2021/11/10 10:31:03;;;;;;;2.83;1.13;;;19.40;69.20;;;;;;6189750;23;20008;-70
2021/11/10 10:33:32;;;;;;;3.83;1.10;;;19.40;69.10;;;;;;6216321;23;20004;-70
2021/11/10 10:36:07;;;;;;;3.67;0.80;;;19.40;69.20;;;;;;6215822;23;20001;-70
2021/11/10 10:38:39;;;;;;;3.33;1.10;;;19.50;69.20;;;;;;6166223;23;20000;-70
2021/11/10 10:41:07;;;;;;;2.95;1.17;;;19.50;69.20;;;;;;6190826;23;20348;-71
2021/11/10 10:43:44;;;;;;;3.95;1.00;;;19.40;69.30;;;;;;6216138;23;20051;-70
2021/11/10 10:46:10;;;;;;;2.28;0.90;;;19.40;69.10;;;;;;6166287;23;20008;-70
2021/11/10 10:48:36;;;;;;;4.47;1.20;;;19.40;69.10;;;;;;6165192;23;20008;-70
2021/11/10 10:51:13;;;;;;;2.25;0.75;;;19.40;69.00;;;;;;6189268;23;20456;-70
2021/11/10 10:53:42;;;;;;;2.60;0.90;;;19.50;69.00;;;;;;6189627;23;20007;-71
2021/11/10 10:56:20;;;;;;;1.95;0.93;;;19.50;69.00;;;;;;6189503;23;20031;-71
2021/11/10 10:58:56;;;;;;;1.15;0.63;;;19.50;69.00;;;;;;6216193;23;20000;-71
2021/11/10 11:01:30;;;;;;;3.45;1.10;;;19.40;69.00;;;;;;6189552;23;20004;-71
2021/11/10 11:04:07;;;;;;;2.65;0.90;;;19.40;69.00;;;;;;6189656;23;20004;-70
2021/11/10 11:06:45;;;;;;;2.03;0.70;;;19.40;68.90;;;;;;6216189;23;20001;-70
2021/11/10 11:09:24;;;;;;;3.13;1.08;;;19.50;68.90;;;;;;6190811;23;20007;-70
2021/11/10 11:11:58;;;;;;;2.58;0.93;;;19.50;69.00;;;;;;6189870;23;20009;-70
2021/11/10 11:14:38;;;;;;;0.82;0.70;;;19.40;69.00;;;;;;6215620;23;20000;-70
2021/11/10 11:17:07;;;;;;;1.50;0.70;;;19.40;69.00;;;;;;6191100;23;20008;-70
2021/11/10 11:19:35;;;;;;;1.48;0.60;;;19.40;68.90;;;;;;6188888;23;20087;-70
2021/11/10 11:22:01;;;;;;;1.75;0.52;;;19.40;69.00;;;;;;6165751;23;20094;-70
2021/11/10 11:24:30;;;;;;;2.03;0.88;;;19.40;68.90;;;;;;6215888;23;20020;-70
2021/11/10 11:27:11;;;;;;;2.40;0.90;;;19.40;68.80;;;;;;6189366;23;20062;-70
2021/11/10 11:29:36;;;;;;;2.03;0.75;;;19.50;68.70;;;;;;6190392;23;20074;-70
2021/11/10 11:32:02;;;;;;;3.42;0.60;;;19.40;68.80;;;;;;6164630;23;20000;-70
2021/11/10 11:34:46;;;;;;;1.30;0.80;;;19.40;68.80;;;;;;6164034;23;20000;-71
2021/11/10 11:37:12;;;;;;;1.65;0.68;;;19.50;68.70;;;;;;6189765;23;20004;-70
2021/11/10 11:39:37;;;;;;;1.55;0.85;;;19.40;68.80;;;;;;6164450;23;20001;-70
2021/11/10 11:42:03;;;;;;;2.35;0.77;;;19.50;68.80;;;;;;6164624;23;20011;-70
2021/11/10 11:44:28;;;;;;;1.90;0.60;;;19.50;68.80;;;;;;6215649;23;20005;-70
2021/11/10 11:46:54;;;;;;;1.23;0.70;;;19.50;68.70;;;;;;6164415;23;20000;-70
2021/11/10 11:49:20;;;;;;;1.50;0.80;;;19.50;68.70;;;;;;6215251;23;20024;-70
2021/11/10 11:51:45;;;;;;;0.98;0.80;;;19.50;68.70;;;;;;6189148;23;20428;-70
2021/11/10 11:54:12;;;;;;;1.17;0.70;;;19.50;68.70;;;;;;6164237;23;20005;-70
2021/11/10 11:56:39;;;;;;;1.23;0.85;;;19.50;68.70;;;;;;6164654;23;20032;-70
2021/11/10 11:59:04;;;;;;;0.88;0.50;;;19.50;68.70;;;;;;6164321;23;20103;-70
2021/11/10 12:01:30;;;;;;;2.03;0.63;;;19.50;68.70;;;;;;6164300;23;20032;-71
2021/11/10 12:04:05;;;;;;;0.85;0.57;;;19.50;68.70;;;;;;6188763;23;20083;-70
2021/11/10 12:06:34;;;;;;;1.05;0.60;;;19.50;68.70;;;;;;6189804;23;20006;-71
2021/11/10 12:09:00;;;;;;;0.90;0.63;;;19.50;68.60;;;;;;6188920;23;20440;-70
2021/11/10 12:11:30;;;;;;;1.52;0.80;;;19.50;68.60;;;;;;6188579;23;20008;-70
2021/11/10 12:14:15;;;;;;;0.88;0.70;;;19.50;68.60;;;;;;6215513;23;20000;-70
2021/11/10 12:17:00;;;;;;;2.13;0.80;;;19.50;68.60;;;;;;6188756;23;20001;-70
2021/11/10 12:19:31;;;;;;;1.33;0.65;;;19.50;68.50;;;;;;6188729;23;20521;-70
2021/11/10 12:22:08;;;;;;;1.10;0.60;;;19.50;68.60;;;;;;6215532;23;20039;-71
2021/11/10 12:24:41;;;;;;;1.10;0.55;;;19.50;68.60;;;;;;6214988;23;20013;-70
2021/11/10 12:27:11;;;;;;;;;;;19.50;68.60;;;;;;6215467;23;20005;-71
2021/11/10 12:29:57;;;;;;;0.63;0.40;;;19.50;68.40;;;;;;6188560;23;20357;-71
2021/11/10 12:32:29;;;;;;;1.45;0.60;;;19.50;68.70;;;;;;6188929;23;20009;-70
2021/11/10 12:34:55;;;;;;;1.10;0.60;;;19.40;68.70;;;;;;6215279;23;20459;-70
2021/11/10 12:37:29;;;;;;;2.78;0.73;;;19.40;68.60;;;;;;6188706;23;19997;-71
2021/11/10 12:40:15;;;;;;;0.90;0.40;;;19.40;68.60;;;;;;6189024;23;20055;-71
2021/11/10 12:43:02;;;;;;;2.45;0.73;;;19.50;68.50;;;;;;6188736;23;20011;-70
2021/11/10 12:45:33;;;;;;;0.85;0.50;;;19.50;68.50;;;;;;6214617;23;20050;-70
2021/11/10 12:48:00;;;;;;;0.85;0.75;;;19.50;68.60;;;;;;6164214;23;20074;-70